Time;durP1;ratioP1;P1;durP2;ratioP2;P2;SDS_P1;SDS_P2;PMS_P1;PMS_P2;Temp;Humidity;BMP_temperature;BMP_pressure;BME280_temperature;BME280_humidity;BME280_pressure;Samples;Min_cycle;Max_cycle;Signal;HPM_P1;HPM_P2
2022/07/02 00:02:26;;;;;;;14.80;9.20;;;717.70;1868.80;;;;;;5082161;28;20024;-78
2022/07/02 00:05:02;;;;;;;13.75;9.23;;;717.60;1868.80;;;;;;5082373;28;20025;-79
2022/07/02 00:07:28;;;;;;;14.82;9.50;;;717.50;1894.40;;;;;;5081925;28;20514;-78
2022/07/02 00:09:55;;;;;;;14.38;9.65;;;717.50;1894.40;;;;;;5085840;28;20024;-78
2022/07/02 00:12:22;;;;;;;15.07;10.07;;;717.50;1920.00;;;;;;5106480;28;20028;-77
2022/07/02 00:14:54;;;;;;;15.70;8.95;;;717.70;1868.80;;;;;;5064761;28;20039;-79
2022/07/02 00:17:21;;;;;;;15.98;8.95;;;717.70;1868.80;;;;;;5065093;28;20021;-79
2022/07/02 00:19:47;;;;;;;14.65;8.35;;;742.40;1894.40;;;;;;5081395;28;20033;-78
2022/07/02 00:22:15;;;;;;;12.88;7.78;;;742.40;1868.80;;;;;;5065639;28;20086;-79
2022/07/02 00:24:41;;;;;;;10.30;8.48;;;717.70;1894.40;;;;;;5082729;28;20071;-78
2022/07/02 00:27:13;;;;;;;15.48;8.70;;;717.50;1894.40;;;;;;5080741;28;20517;-78
2022/07/02 00:29:44;;;;;;;16.85;9.27;;;717.50;1894.40;;;;;;5082623;28;20020;-75
2022/07/02 00:32:11;;;;;;;13.10;7.70;;;717.40;1920.00;;;;;;5065207;28;20123;-78
2022/07/02 00:34:38;;;;;;;14.15;8.13;;;717.30;1920.00;;;;;;5082352;28;20012;-78
2022/07/02 00:37:08;;;;;;;13.00;8.02;;;717.20;1945.60;;;;;;5081635;28;20457;-78
2022/07/02 00:39:35;;;;;;;8.90;7.85;;;717.20;1945.60;;;;;;5065167;28;20056;-79
2022/07/02 00:42:03;;;;;;;9.80;7.50;;;717.10;1971.20;;;;;;5074684;28;20031;-78
2022/07/02 00:44:30;;;;;;;14.23;7.90;;;717.00;1996.80;;;;;;5112647;28;20098;-76
2022/07/02 00:47:05;;;;;;;15.93;7.97;;;716.90;2022.40;;;;;;5094582;28;20025;-78
2022/07/02 00:49:33;;;;;;;19.48;8.55;;;717.10;1996.80;;;;;;5062884;28;20028;-75
2022/07/02 00:51:59;;;;;;;14.20;8.18;;;717.20;1996.80;;;;;;5082606;28;20024;-76
2022/07/02 00:54:26;;;;;;;13.77;8.65;;;717.20;1971.20;;;;;;5082639;28;20104;-78
2022/07/02 00:56:52;;;;;;;24.67;8.90;;;717.30;1996.80;;;;;;5081382;28;20100;-78
2022/07/02 00:59:22;;;;;;;16.88;8.38;;;717.20;1996.80;;;;;;5078028;28;20019;-78
2022/07/02 01:01:48;;;;;;;13.82;8.10;;;717.10;2022.40;;;;;;5074872;28;20029;-78
2022/07/02 01:04:14;;;;;;;15.90;8.68;;;717.20;1971.20;;;;;;5080851;28;20016;-78
2022/07/02 01:06:42;;;;;;;16.40;8.00;;;717.40;1945.60;;;;;;5110646;28;20090;-79
2022/07/02 01:11:58;;;;;;;11.50;7.45;;;717.30;2048.00;;;;;;5094871;28;20031;-78
2022/07/02 01:14:25;;;;;;;14.23;7.60;;;717.20;2099.20;;;;;;5081744;28;20021;-79
2022/07/02 01:16:50;;;;;;;17.52;8.10;;;717.50;2073.60;;;;;;5064580;28;20032;-78
2022/07/02 01:19:20;;;;;;;12.32;7.30;;;717.50;2073.60;;;;;;5081090;28;20020;-78
2022/07/02 01:22:14;;;;;;;11.23;7.45;;;717.60;2073.60;;;;;;5063426;28;20043;-79
2022/07/02 01:24:41;;;;;;;16.20;9.05;;;717.60;2073.60;;;;;;5081301;28;20052;-78
2022/07/02 01:27:07;;;;;;;13.38;7.78;;;717.50;2073.60;;;;;;5081171;28;20024;-79
2022/07/02 01:29:33;;;;;;;15.48;8.43;;;717.60;2073.60;;;;;;5082550;28;20061;-77
2022/07/02 01:31:58;;;;;;;13.60;7.80;;;717.60;2048.00;;;;;;5062979;28;20094;-76
2022/07/02 01:34:24;;;;;;;11.70;7.82;;;717.70;2073.60;;;;;;5063489;28;20571;-77
2022/07/02 01:36:50;;;;;;;12.32;7.43;;;717.60;2099.20;;;;;;5064000;28;20020;-76
2022/07/02 01:39:22;;;;;;;12.82;8.43;;;717.50;2099.20;;;;;;5062555;28;20522;-76
2022/07/02 01:41:48;;;;;;;19.83;7.95;;;717.60;2073.60;;;;;;5080757;28;20027;-76
2022/07/02 01:44:13;;;;;;;21.17;8.55;;;717.50;2073.60;;;;;;5064152;28;20040;-78
2022/07/02 01:46:39;;;;;;;16.80;8.45;;;717.20;2099.20;;;;;;5080958;28;20032;-78
2022/07/02 01:49:05;;;;;;;27.23;9.93;;;717.10;2150.40;;;;;;5081233;28;20020;-77
2022/07/02 01:51:31;;;;;;;24.55;9.02;;;717.10;2176.00;;;;;;5082231;28;20115;-76
2022/07/02 01:53:57;;;;;;;22.88;8.80;;;717.00;2176.00;;;;;;5080803;28;20562;-76
2022/07/02 01:56:23;;;;;;;25.10;8.40;;;717.00;2176.00;;;;;;5063373;28;20027;-75
2022/07/02 01:58:48;;;;;;;26.10;7.93;;;716.90;2201.60;;;;;;5063878;28;20024;-76
2022/07/02 02:01:14;;;;;;;21.08;8.07;;;716.90;2201.60;;;;;;5062159;28;20033;-76
2022/07/02 02:03:40;;;;;;;31.90;7.68;;;716.80;2227.20;;;;;;5081533;28;20020;-76
2022/07/02 02:06:06;;;;;;;23.48;7.97;;;692.10;2227.20;;;;;;5081826;28;20024;-76
2022/07/02 02:08:31;;;;;;;21.60;7.95;;;692.10;2227.20;;;;;;5094051;28;20020;-76
2022/07/02 02:10:57;;;;;;;20.25;8.23;;;692.10;2252.80;;;;;;5105268;28;20027;-77
2022/07/02 02:13:23;;;;;;;24.23;8.23;;;692.10;2252.80;;;;;;5086954;28;20028;-77
2022/07/02 02:15:49;;;;;;;19.70;7.65;;;692.00;2278.40;;;;;;5064203;28;20508;-76
2022/07/02 02:18:15;;;;;;;19.15;6.97;;;691.90;2278.40;;;;;;5104537;28;20087;-76
2022/07/02 02:20:40;;;;;;;34.72;7.30;;;692.00;2278.40;;;;;;5062939;28;20035;-76
2022/07/02 02:23:06;;;;;;;23.10;7.05;;;691.90;2304.00;;;;;;5062670;28;20039;-76
2022/07/02 02:25:32;;;;;;;22.83;6.93;;;691.90;2304.00;;;;;;5063660;28;20114;-76
2022/07/02 02:27:59;;;;;;;24.65;6.85;;;691.90;2304.00;;;;;;5080321;28;20520;-75
2022/07/02 02:30:25;;;;;;;22.60;6.15;;;691.80;2329.60;;;;;;5081104;28;20022;-76
2022/07/02 02:32:50;;;;;;;24.95;6.57;;;691.70;2355.20;;;;;;5081927;28;20026;-76
2022/07/02 02:35:16;;;;;;;21.55;6.68;;;691.70;2355.20;;;;;;5079726;28;20036;-76
2022/07/02 02:37:42;;;;;;;25.88;5.82;;;691.60;2380.80;;;;;;5081667;28;20584;-76
2022/07/02 02:40:09;;;;;;;21.25;5.82;;;691.40;2380.80;;;;;;5081245;28;20091;-76
2022/07/02 02:42:34;;;;;;;15.60;5.38;;;691.40;2406.40;;;;;;5061650;28;20016;-76
2022/07/02 02:45:00;;;;;;;19.42;6.32;;;691.50;2406.40;;;;;;5081264;28;20046;-75
2022/07/02 02:47:26;;;;;;;17.23;5.25;;;691.40;2380.80;;;;;;5082130;28;20023;-76
2022/07/02 02:49:52;;;;;;;29.92;4.85;;;691.60;2355.20;;;;;;5065574;28;20040;-79
2022/07/02 02:52:17;;;;;;;16.88;4.85;;;691.50;2380.80;;;;;;5083332;28;20369;-76
2022/07/02 02:54:44;;;;;;;19.83;5.45;;;691.30;2432.00;;;;;;5085133;28;20419;-76
2022/07/02 02:57:09;;;;;;;15.02;5.13;;;691.30;2406.40;;;;;;5066886;28;20020;-75
2022/07/02 02:59:35;;;;;;;19.70;4.47;;;691.50;2380.80;;;;;;5083360;28;20025;-76
2022/07/02 03:02:01;;;;;;;25.48;5.90;;;691.50;2380.80;;;;;;5084899;28;20505;-75
2022/07/02 03:04:27;;;;;;;18.58;5.32;;;691.50;2380.80;;;;;;5066544;28;20024;-75
2022/07/02 03:06:52;;;;;;;18.27;5.00;;;691.30;2406.40;;;;;;5083281;28;20031;-76
2022/07/02 03:09:18;;;;;;;18.23;5.28;;;691.40;2406.40;;;;;;5085354;28;20027;-76
2022/07/02 03:11:44;;;;;;;24.20;5.80;;;691.30;2432.00;;;;;;5083711;28;20099;-76
2022/07/02 03:14:10;;;;;;;27.05;5.38;;;691.20;2432.00;;;;;;5065777;28;20039;-76
2022/07/02 03:16:36;;;;;;;10.63;4.55;;;666.50;2432.00;;;;;;5066825;28;20024;-75
2022/07/02 03:19:02;;;;;;;14.07;5.47;;;666.50;2432.00;;;;;;5083085;28;20494;-76
2022/07/02 03:21:28;;;;;;;16.92;4.45;;;666.30;2432.00;;;;;;5066068;28;20390;-76
2022/07/02 03:23:54;;;;;;;19.30;5.57;;;666.50;2432.00;;;;;;5084661;28;20032;-75
2022/07/02 03:26:20;;;;;;;20.70;4.45;;;666.50;2432.00;;;;;;5082981;28;20028;-76
2022/07/02 03:28:45;;;;;;;14.68;4.25;;;691.30;2432.00;;;;;;5066011;28;20488;-76
2022/07/02 03:31:11;;;;;;;19.42;5.40;;;666.40;2432.00;;;;;;5084305;28;20425;-76
2022/07/02 03:33:38;;;;;;;14.40;5.03;;;666.50;2432.00;;;;;;5064325;28;20017;-76
2022/07/02 03:36:04;;;;;;;19.20;5.05;;;666.30;2432.00;;;;;;5066379;28;20016;-76
2022/07/02 03:38:30;;;;;;;14.80;5.10;;;666.40;2432.00;;;;;;5083905;28;20021;-76
2022/07/02 03:40:55;;;;;;;19.70;4.78;;;666.50;2432.00;;;;;;5082718;28;20059;-76
2022/07/02 03:43:21;;;;;;;16.25;4.50;;;666.50;2432.00;;;;;;5065996;28;20024;-77
2022/07/02 03:45:47;;;;;;;16.20;4.50;;;666.50;2432.00;;;;;;5089156;28;20363;-77
2022/07/02 03:48:13;;;;;;;13.90;5.93;;;666.50;2432.00;;;;;;5068211;28;20028;-76
2022/07/02 03:50:40;;;;;;;13.45;5.15;;;666.50;2432.00;;;;;;5064200;28;20051;-76
2022/07/02 03:53:06;;;;;;;14.15;5.03;;;666.30;2432.00;;;;;;5083914;28;20020;-76
2022/07/02 03:55:32;;;;;;;9.68;4.90;;;666.30;2432.00;;;;;;5065599;28;20048;-76
2022/07/02 03:57:58;;;;;;;13.65;4.93;;;666.30;2432.00;;;;;;5082450;28;20013;-75
2022/07/02 04:00:24;;;;;;;10.10;5.07;;;691.20;2432.00;;;;;;5064604;28;20044;-76
2022/07/02 04:02:49;;;;;;;13.05;5.50;;;666.50;2432.00;;;;;;5083355;28;20019;-76
2022/07/02 04:05:15;;;;;;;16.58;4.85;;;666.50;2432.00;;;;;;5063964;28;20036;-77
2022/07/02 04:07:41;;;;;;;15.32;4.97;;;666.50;2432.00;;;;;;5066005;28;20024;-76
2022/07/02 04:10:07;;;;;;;18.33;5.30;;;691.40;2432.00;;;;;;5082668;28;20021;-76
2022/07/02 04:12:33;;;;;;;22.75;5.03;;;691.50;2432.00;;;;;;5082202;28;20099;-76
2022/07/02 04:14:59;;;;;;;15.40;4.90;;;691.50;2432.00;;;;;;5066108;28;20115;-75
2022/07/02 04:17:25;;;;;;;15.82;4.95;;;691.50;2432.00;;;;;;5082180;28;20535;-76
2022/07/02 04:19:51;;;;;;;21.67;5.07;;;691.30;2432.00;;;;;;5082741;28;20023;-76
2022/07/02 04:22:16;;;;;;;18.95;5.10;;;691.30;2432.00;;;;;;5083642;28;20031;-76
2022/07/02 04:24:42;;;;;;;17.30;4.93;;;691.30;2432.00;;;;;;5081911;28;20013;-76
2022/07/02 04:27:08;;;;;;;9.93;4.88;;;691.30;2432.00;;;;;;5082694;28;20466;-76
2022/07/02 04:29:34;;;;;;;22.05;5.82;;;691.40;2432.00;;;;;;5083310;28;20032;-76
2022/07/02 04:32:00;;;;;;;17.02;5.38;;;691.50;2432.00;;;;;;5063499;28;20522;-76
2022/07/02 04:34:26;;;;;;;14.68;5.70;;;691.60;2380.80;;;;;;5083164;28;20374;-79
2022/07/02 04:36:52;;;;;;;11.23;5.40;;;691.60;2380.80;;;;;;5082566;28;20032;-78
2022/07/02 04:39:17;;;;;;;14.55;4.97;;;691.70;2406.40;;;;;;5063449;28;20016;-78
2022/07/02 04:41:43;;;;;;;11.57;5.28;;;691.70;2406.40;;;;;;5083455;28;20424;-82
2022/07/02 04:44:09;;;;;;;11.65;5.47;;;691.70;2380.80;;;;;;5081856;28;20044;-78
2022/07/02 04:46:34;;;;;;;19.83;4.80;;;691.70;2380.80;;;;;;5063934;28;20028;-79
2022/07/02 04:49:00;;;;;;;11.30;4.65;;;691.80;2380.80;;;;;;5083308;28;20016;-78
2022/07/02 04:51:26;;;;;;;12.77;5.72;;;691.90;2329.60;;;;;;5063528;28;20017;-79
2022/07/02 04:53:52;;;;;;;9.55;5.07;;;691.80;2355.20;;;;;;5082165;28;20409;-77
2022/07/02 04:56:18;;;;;;;17.33;5.68;;;691.90;2329.60;;;;;;5083230;28;20040;-79
2022/07/02 04:58:43;;;;;;;8.13;5.10;;;691.90;2304.00;;;;;;5061733;28;20064;-77
2022/07/02 05:01:09;;;;;;;13.32;4.50;;;692.10;2278.40;;;;;;5082585;28;20057;-78
2022/07/02 05:03:35;;;;;;;7.97;4.28;;;692.00;2329.60;;;;;;5063887;28;20023;-79
2022/07/02 05:06:01;;;;;;;10.27;4.38;;;691.90;2355.20;;;;;;5062787;28;20024;-79
2022/07/02 05:08:26;;;;;;;16.20;4.88;;;691.90;2329.60;;;;;;5083058;28;20055;-79
2022/07/02 05:10:56;;;;;;;13.88;4.18;;;691.90;2304.00;;;;;;5081879;28;20033;-80
2022/07/02 05:13:22;;;;;;;11.20;4.63;;;691.90;2329.60;;;;;;5080347;28;20032;-79
2022/07/02 05:15:49;;;;;;;10.95;3.90;;;691.90;2304.00;;;;;;5082201;28;20543;-79
2022/07/02 05:18:16;;;;;;;10.52;3.75;;;691.70;2304.00;;;;;;5082219;28;20382;-78
2022/07/02 05:20:42;;;;;;;18.80;3.90;;;716.90;2304.00;;;;;;5065185;28;20424;-79
2022/07/02 05:23:08;;;;;;;7.57;3.25;;;691.60;2304.00;;;;;;5063053;28;20016;-78
2022/07/02 05:25:34;;;;;;;12.95;3.78;;;691.50;2304.00;;;;;;5081567;28;20027;-78
2022/07/02 05:28:00;;;;;;;14.70;3.92;;;691.40;2278.40;;;;;;5067472;28;20024;-80
2022/07/02 05:30:26;;;;;;;9.77;3.78;;;691.50;2252.80;;;;;;5076369;28;20474;-79
2022/07/02 05:32:51;;;;;;;11.43;3.70;;;691.50;2252.80;;;;;;5082180;28;20071;-79
2022/07/02 05:35:17;;;;;;;11.68;3.47;;;691.50;2227.20;;;;;;5064074;28;20020;-79
2022/07/02 05:37:43;;;;;;;11.88;3.83;;;691.60;2227.20;;;;;;5080409;28;20021;-79
2022/07/02 05:40:10;;;;;;;11.30;4.15;;;691.60;2227.20;;;;;;5063718;28;20046;-79
2022/07/02 05:42:36;;;;;;;16.23;4.10;;;691.80;2227.20;;;;;;5081600;28;20092;-79
2022/07/02 05:45:01;;;;;;;22.33;4.80;;;691.80;2227.20;;;;;;5080700;28;20056;-79
2022/07/02 05:47:27;;;;;;;16.75;3.92;;;691.90;2227.20;;;;;;5064381;28;20584;-79
2022/07/02 05:49:54;;;;;;;10.43;3.47;;;691.70;2227.20;;;;;;5063064;28;20089;-79
2022/07/02 05:52:20;;;;;;;18.88;3.67;;;691.70;2227.20;;;;;;5062555;28;20016;-79
2022/07/02 05:54:45;;;;;;;23.60;5.85;;;691.70;2227.20;;;;;;5082671;28;20028;-79
2022/07/02 05:57:12;;;;;;;10.95;3.40;;;691.70;2227.20;;;;;;5062956;28;20020;-79
2022/07/02 05:59:37;;;;;;;16.27;4.45;;;691.70;2252.80;;;;;;5063113;28;20032;-80
2022/07/02 06:02:04;;;;;;;13.52;3.80;;;691.70;2227.20;;;;;;5072913;28;20362;-80
2022/07/02 06:04:31;;;;;;;13.85;4.35;;;691.80;2252.80;;;;;;5093488;28;20020;-79
2022/07/02 06:09:42;;;;;;;9.52;3.83;;;691.90;2252.80;;;;;;5082213;28;20473;-79
2022/07/02 06:12:08;;;;;;;9.55;4.28;;;691.90;2304.00;;;;;;5094900;28;20054;-78
2022/07/02 06:14:34;;;;;;;23.05;4.97;;;691.90;2329.60;;;;;;5075069;28;20051;-79
2022/07/02 06:17:00;;;;;;;9.27;4.90;;;691.90;2355.20;;;;;;5062335;28;20462;-79
2022/07/02 06:19:26;;;;;;;15.73;4.85;;;691.70;2406.40;;;;;;5064209;28;20027;-79
2022/07/02 06:21:53;;;;;;;18.00;4.78;;;691.70;2432.00;;;;;;5080546;28;20032;-79
2022/07/02 06:24:18;;;;;;;14.93;4.82;;;691.70;2432.00;;;;;;5082271;28;20045;-79
2022/07/02 06:26:45;;;;;;;13.60;4.47;;;691.70;2432.00;;;;;;5086213;28;20027;-78
2022/07/02 06:29:11;;;;;;;10.30;4.90;;;691.80;2432.00;;;;;;5066327;28;20024;-80
2022/07/02 06:31:37;;;;;;;14.00;5.00;;;691.70;2432.00;;;;;;5075024;28;20127;-79
2022/07/02 06:34:03;;;;;;;15.95;4.43;;;691.80;2432.00;;;;;;5090248;28;20020;-79
2022/07/02 06:36:29;;;;;;;9.75;4.35;;;691.70;2432.00;;;;;;5076897;28;20028;-79
2022/07/02 06:38:55;;;;;;;16.77;4.47;;;691.90;2432.00;;;;;;5077030;28;20024;-79
2022/07/02 06:44:06;;;;;;;15.10;5.50;;;692.10;2432.00;;;;;;5080568;28;20529;-80
2022/07/02 06:46:33;;;;;;;10.07;4.72;;;692.10;2432.00;;;;;;5077115;28;20028;-79
2022/07/02 06:48:59;;;;;;;13.73;4.88;;;692.10;2432.00;;;;;;5073297;28;20059;-79
2022/07/02 06:51:25;;;;;;;9.77;4.78;;;692.10;2432.00;;;;;;5066962;28;20020;-79
2022/07/02 06:53:51;;;;;;;11.52;4.95;;;716.90;2432.00;;;;;;5066716;28;20158;-79
2022/07/02 06:56:16;;;;;;;16.38;5.30;;;717.00;2432.00;;;;;;5065448;28;20052;-79
2022/07/02 06:58:42;;;;;;;17.60;5.72;;;717.00;2432.00;;;;;;5067088;28;20537;-80
2022/07/02 07:01:08;;;;;;;16.23;5.15;;;717.20;2432.00;;;;;;5065776;28;20076;-79
2022/07/02 07:03:34;;;;;;;8.18;4.97;;;717.20;2432.00;;;;;;5067768;28;20466;-77
2022/07/02 07:05:59;;;;;;;11.57;5.20;;;717.40;2432.00;;;;;;5064900;28;20035;-77
2022/07/02 07:08:25;;;;;;;11.20;4.85;;;717.20;2432.00;;;;;;5066518;28;20069;-79
2022/07/02 07:10:51;;;;;;;10.18;4.80;;;717.30;2432.00;;;;;;5066805;28;20031;-78
2022/07/02 07:13:16;;;;;;;15.07;5.45;;;717.50;2432.00;;;;;;5076359;28;20028;-77
2022/07/02 07:15:42;;;;;;;13.48;4.90;;;717.60;2406.40;;;;;;5076268;28;20528;-77
2022/07/02 07:18:08;;;;;;;8.43;4.85;;;717.70;2406.40;;;;;;5094567;28;20074;-78
2022/07/02 07:20:36;;;;;;;11.48;5.10;;;717.70;2406.40;;;;;;5094394;28;20081;-77
2022/07/02 07:23:01;;;;;;;11.73;4.43;;;742.60;2380.80;;;;;;5069617;28;20440;-77
2022/07/02 07:25:28;;;;;;;8.68;4.80;;;742.70;2329.60;;;;;;5066403;28;20169;-77
2022/07/02 07:27:53;;;;;;;15.48;5.00;;;742.60;2278.40;;;;;;5083982;28;20035;-77
2022/07/02 07:30:19;;;;;;;12.07;4.78;;;742.60;2329.60;;;;;;5058586;28;20017;-77
2022/07/02 07:32:45;;;;;;;11.77;5.22;;;742.70;2252.80;;;;;;5083874;28;20035;-77
2022/07/02 07:35:10;;;;;;;12.50;4.53;;;742.80;2304.00;;;;;;5075105;28;20470;-77
2022/07/02 07:37:36;;;;;;;8.40;4.60;;;743.00;2278.40;;;;;;5066834;28;20573;-78
2022/07/02 07:40:07;;;;;;;11.55;4.65;;;743.10;2304.00;;;;;;5070423;28;20040;-77
2022/07/02 07:42:33;;;;;;;8.55;4.20;;;743.20;2201.60;;;;;;5089258;28;20091;-77
2022/07/02 07:44:59;;;;;;;6.60;4.07;;;768.00;2201.60;;;;;;5088525;28;20052;-77
2022/07/02 07:47:25;;;;;;;6.72;4.00;;;768.40;2124.80;;;;;;5068620;28;20021;-77
2022/07/02 07:49:50;;;;;;;8.98;4.45;;;768.50;2073.60;;;;;;5090849;28;20490;-78
2022/07/02 07:52:16;;;;;;;13.77;4.57;;;768.60;2048.00;;;;;;5075591;28;20470;-78
2022/07/02 07:54:42;;;;;;;9.85;4.65;;;768.70;2073.60;;;;;;5093725;28;20035;-78
2022/07/02 07:57:08;;;;;;;16.08;5.00;;;768.90;2022.40;;;;;;5093865;28;20161;-78
2022/07/02 07:59:34;;;;;;;11.85;4.80;;;793.70;2022.40;;;;;;5075402;28;20470;-77
2022/07/02 08:01:59;;;;;;;13.65;4.55;;;793.90;1945.60;;;;;;5075398;28;20114;-78
2022/07/02 08:04:25;;;;;;;10.00;4.95;;;794.10;1945.60;;;;;;5071596;28;20035;-78
2022/07/02 08:06:51;;;;;;;14.63;5.60;;;794.10;1920.00;;;;;;5092777;28;20024;-78
2022/07/02 08:09:17;;;;;;;8.60;4.53;;;794.20;1868.80;;;;;;5075404;28;20115;-78
2022/07/02 08:11:43;;;;;;;9.45;5.47;;;794.20;1843.20;;;;;;5075503;28;20481;-78
2022/07/02 08:14:09;;;;;;;13.35;4.88;;;794.20;1945.60;;;;;;5074879;28;20020;-78
2022/07/02 08:16:34;;;;;;;10.50;4.72;;;794.30;1971.20;;;;;;5075456;28;20028;-78
2022/07/02 08:19:00;;;;;;;12.02;5.43;;;794.20;1971.20;;;;;;5074939;28;20035;-78
2022/07/02 08:21:26;;;;;;;12.95;5.22;;;794.10;1996.80;;;;;;5075034;28;20063;-78
2022/07/02 08:23:52;;;;;;;12.20;5.70;;;794.00;2048.00;;;;;;5075311;28;20463;-78
2022/07/02 08:26:17;;;;;;;9.98;5.20;;;793.90;2022.40;;;;;;5074972;28;20035;-78
2022/07/02 08:28:43;;;;;;;12.68;4.95;;;793.80;2073.60;;;;;;5075489;28;20115;-78
2022/07/02 08:31:09;;;;;;;10.38;5.63;;;793.70;2048.00;;;;;;5074534;28;20739;-80
2022/07/02 08:33:35;;;;;;;9.43;5.05;;;793.60;2073.60;;;;;;5093398;28;20028;-77
2022/07/02 08:36:01;;;;;;;10.63;5.18;;;768.80;2022.40;;;;;;5087706;28;20020;-77
2022/07/02 08:38:27;;;;;;;14.52;4.47;;;768.70;2048.00;;;;;;5093055;28;20024;-77
2022/07/02 08:40:53;;;;;;;15.70;4.47;;;768.60;2022.40;;;;;;5085201;28;20067;-77
2022/07/02 08:43:24;;;;;;;11.00;4.28;;;768.60;2048.00;;;;;;5091990;28;20547;-76
2022/07/02 08:45:52;;;;;;;8.02;4.38;;;768.60;2022.40;;;;;;5081238;28;20048;-76
2022/07/02 08:48:20;;;;;;;10.23;4.10;;;768.60;1996.80;;;;;;5077570;28;20047;-78
2022/07/02 08:50:47;;;;;;;16.63;4.60;;;768.70;1996.80;;;;;;5074493;28;20576;-78
2022/07/02 08:53:17;;;;;;;18.67;4.50;;;768.40;2048.00;;;;;;5089556;28;20181;-78
2022/07/02 08:55:44;;;;;;;13.63;4.38;;;768.30;2048.00;;;;;;5074688;28;20039;-77
2022/07/02 08:58:11;;;;;;;17.88;4.63;;;768.30;2048.00;;;;;;5091671;28;20024;-78
2022/07/02 09:00:38;;;;;;;15.43;4.45;;;768.10;2048.00;;;;;;5074155;28;20063;-77
2022/07/02 09:03:05;;;;;;;6.47;4.05;;;743.30;2073.60;;;;;;5073752;28;20020;-78
2022/07/02 09:05:32;;;;;;;11.05;4.03;;;743.30;2073.60;;;;;;5073959;28;20054;-78
2022/07/02 09:07:58;;;;;;;9.10;4.40;;;743.10;2048.00;;;;;;5074292;28;20008;-78
2022/07/02 09:10:25;;;;;;;8.20;3.83;;;743.00;2099.20;;;;;;5092332;28;20043;-79
2022/07/02 09:12:53;;;;;;;9.80;3.85;;;743.00;2073.60;;;;;;5074378;28;20032;-78
2022/07/02 09:15:19;;;;;;;20.17;4.93;;;742.60;2099.20;;;;;;5088079;28;20024;-78
2022/07/02 09:17:45;;;;;;;13.40;4.22;;;742.80;2124.80;;;;;;5074471;28;20058;-78
2022/07/02 09:20:12;;;;;;;11.07;4.05;;;742.60;2124.80;;;;;;5091779;28;20083;-79
2022/07/02 09:22:42;;;;;;;9.20;3.53;;;742.60;2073.60;;;;;;5073539;28;20070;-80
2022/07/02 09:25:11;;;;;;;9.50;3.83;;;742.50;2124.80;;;;;;5092132;28;20531;-79
2022/07/02 09:27:37;;;;;;;10.25;3.40;;;742.90;2073.60;;;;;;5074244;28;20032;-78
2022/07/02 09:30:04;;;;;;;7.15;3.78;;;742.90;2099.20;;;;;;5092153;28;20375;-80
2022/07/02 09:32:37;;;;;;;10.38;3.80;;;742.90;2099.20;;;;;;5073950;28;20069;-78
2022/07/02 09:35:03;;;;;;;6.15;3.67;;;743.00;2099.20;;;;;;5074132;28;20066;-78
2022/07/02 09:37:29;;;;;;;7.68;4.00;;;743.10;2124.80;;;;;;5073667;28;20020;-78
2022/07/02 09:40:00;;;;;;;6.28;3.90;;;743.20;2073.60;;;;;;5092398;28;20229;-78
2022/07/02 09:42:34;;;;;;;9.38;4.07;;;743.10;2150.40;;;;;;5073361;28;20397;-78
2022/07/02 09:45:03;;;;;;;7.72;4.00;;;743.10;2176.00;;;;;;5073636;28;20064;-78
2022/07/02 09:47:31;;;;;;;6.80;3.92;;;768.00;2073.60;;;;;;5081350;28;20477;-78
2022/07/02 09:50:00;;;;;;;6.57;3.60;;;768.10;2048.00;;;;;;5075499;28;20028;-76
2022/07/02 09:52:26;;;;;;;5.00;3.38;;;768.20;2048.00;;;;;;5091926;28;20016;-76
2022/07/02 09:54:52;;;;;;;7.78;4.18;;;768.60;2073.60;;;;;;5091613;28;20501;-75
2022/07/02 09:57:17;;;;;;;11.80;3.75;;;768.60;1996.80;;;;;;5092007;28;20050;-78
2022/07/02 09:59:43;;;;;;;10.63;4.30;;;768.70;1971.20;;;;;;5077434;28;20056;-78
2022/07/02 10:02:23;;;;;;;14.82;3.90;;;793.70;1945.60;;;;;;5110061;28;20030;-77
2022/07/02 10:04:57;;;;;;;6.50;4.20;;;768.90;1894.40;;;;;;5077800;28;20017;-77
2022/07/02 10:07:24;;;;;;;11.57;4.00;;;793.60;1920.00;;;;;;5095695;28;20020;-78
2022/07/02 10:09:51;;;;;;;8.43;3.97;;;793.60;1920.00;;;;;;5095929;28;20024;-78
2022/07/02 10:12:18;;;;;;;12.32;4.35;;;793.80;1894.40;;;;;;5095754;28;20027;-78
2022/07/02 10:14:46;;;;;;;9.82;3.53;;;793.80;1843.20;;;;;;5095761;28;20024;-78
2022/07/02 10:17:14;;;;;;;12.98;3.45;;;793.90;1817.60;;;;;;5095632;28;20024;-77
2022/07/02 10:19:40;;;;;;;4.82;3.30;;;794.20;1740.80;;;;;;5077565;28;20126;-76
2022/07/02 10:22:07;;;;;;;15.10;3.13;;;794.30;1740.80;;;;;;5077424;28;20032;-76
2022/07/02 10:24:34;;;;;;;9.80;3.00;;;794.50;1689.60;;;;;;5095492;28;20028;-76
2022/07/02 10:27:01;;;;;;;10.88;3.40;;;819.20;1689.60;;;;;;5077386;28;20035;-75
2022/07/02 10:29:28;;;;;;;4.03;2.63;;;819.20;1612.80;;;;;;5076983;28;20063;-76
2022/07/02 10:32:25;;;;;;;10.52;3.13;;;819.30;1638.40;;;;;;5095564;28;20031;-76
2022/07/02 10:34:57;;;;;;;6.78;3.10;;;819.30;1638.40;;;;;;5076418;28;20032;-78
2022/07/02 10:37:23;;;;;;;9.68;4.07;;;819.50;1638.40;;;;;;5076705;28;20024;-77
2022/07/02 10:39:49;;;;;;;5.45;3.40;;;819.60;1612.80;;;;;;5076528;28;20044;-77
2022/07/02 10:42:15;;;;;;;10.23;3.25;;;819.80;1587.20;;;;;;5094921;28;20099;-77
2022/07/02 10:44:42;;;;;;;5.30;3.05;;;819.90;1587.20;;;;;;5076954;28;20048;-76
2022/07/02 10:47:26;;;;;;;7.63;3.03;;;819.90;1561.60;;;;;;5086491;28;20541;-77
2022/07/02 10:49:59;;;;;;;9.68;3.40;;;820.00;1536.00;;;;;;5079739;28;20099;-77
2022/07/02 10:52:57;;;;;;;8.20;3.08;;;844.80;1587.20;;;;;;5095039;28;20052;-78
2022/07/02 10:55:28;;;;;;;5.38;3.47;;;844.80;1561.60;;;;;;4981392;28;20169;-77
2022/07/02 10:57:58;;;;;;;10.43;3.05;;;844.80;1561.60;;;;;;4973341;28;20039;-74
2022/07/02 11:00:28;;;;;;;8.13;3.30;;;844.80;1561.60;;;;;;4973492;28;20039;-76
2022/07/02 11:02:56;;;;;;;9.30;4.10;;;844.80;1561.60;;;;;;4973360;28;20453;-75
2022/07/02 11:05:22;;;;;;;5.90;2.97;;;844.90;1561.60;;;;;;4973119;28;20035;-76
2022/07/02 11:07:48;;;;;;;10.32;3.40;;;844.80;1561.60;;;;;;4973249;28;20019;-76
2022/07/02 11:10:13;;;;;;;12.07;3.60;;;844.90;1536.00;;;;;;4972243;28;20026;-76
2022/07/02 11:12:52;;;;;;;9.88;3.38;;;844.90;1536.00;;;;;;4952348;28;20126;-76
2022/07/02 11:15:21;;;;;;;11.27;3.22;;;844.90;1561.60;;;;;;4973020;28;20038;-79
2022/07/02 11:17:52;;;;;;;6.22;2.80;;;845.00;1561.60;;;;;;4992402;28;20026;-76
2022/07/02 11:20:27;;;;;;;10.20;3.15;;;845.00;1536.00;;;;;;4995236;28;20512;-77
2022/07/02 11:22:55;;;;;;;9.00;3.55;;;844.90;1587.20;;;;;;5004673;28;20118;-77
2022/07/02 11:25:21;;;;;;;5.82;3.28;;;845.40;1561.60;;;;;;4992535;28;20034;-73
2022/07/02 11:28:02;;;;;;;7.50;3.40;;;845.00;1510.40;;;;;;4992411;28;20026;-76
2022/07/02 11:30:31;;;;;;;5.03;3.10;;;845.00;1510.40;;;;;;5010150;28;20064;-77
2022/07/02 11:32:57;;;;;;;8.27;3.33;;;845.00;1510.40;;;;;;5073225;28;20025;-78
2022/07/02 11:35:23;;;;;;;6.68;3.40;;;845.00;1484.80;;;;;;5072366;28;20028;-77
2022/07/02 11:37:54;;;;;;;7.13;3.13;;;845.00;1510.40;;;;;;5072672;28;20028;-79
2022/07/02 11:40:24;;;;;;;9.30;3.58;;;845.00;1484.80;;;;;;5072522;28;20036;-77
2022/07/02 11:42:50;;;;;;;9.68;3.50;;;845.00;1510.40;;;;;;5072674;28;20106;-78
2022/07/02 11:45:16;;;;;;;14.05;3.22;;;845.20;1484.80;;;;;;5072836;28;20075;-77
2022/07/02 11:47:44;;;;;;;6.88;2.95;;;845.30;1484.80;;;;;;5072961;28;20069;-78
2022/07/02 11:50:10;;;;;;;11.95;3.45;;;845.40;1484.80;;;;;;5043344;28;20108;-74
2022/07/02 11:52:36;;;;;;;7.78;3.17;;;845.40;1484.80;;;;;;5079595;28;20402;-78
2022/07/02 11:55:05;;;;;;;8.18;2.85;;;845.50;1484.80;;;;;;5093988;28;20028;-76
2022/07/02 11:57:34;;;;;;;13.90;3.08;;;870.50;1484.80;;;;;;5082126;28;20070;-80
2022/07/02 12:00:00;;;;;;;7.20;3.15;;;870.40;1459.20;;;;;;5091410;28;20028;-75
2022/07/02 12:02:37;;;;;;;18.60;3.30;;;845.70;1459.20;;;;;;5093700;28;20016;-76
2022/07/02 12:05:14;;;;;;;6.90;3.45;;;845.50;1510.40;;;;;;5093534;28;20224;-77
2022/07/02 12:07:42;;;;;;;7.93;2.80;;;845.50;1459.20;;;;;;5093724;28;20478;-76
2022/07/02 12:10:08;;;;;;;14.38;3.13;;;845.50;1459.20;;;;;;5093379;28;20432;-78
2022/07/02 12:12:34;;;;;;;7.57;2.97;;;845.70;1484.80;;;;;;5093612;28;20072;-76
2022/07/02 12:15:02;;;;;;;7.43;3.15;;;845.70;1459.20;;;;;;5093208;28;20028;-76
2022/07/02 12:17:29;;;;;;;10.52;3.30;;;845.70;1459.20;;;;;;5093580;28;20059;-77
2022/07/02 12:19:56;;;;;;;8.10;2.85;;;870.40;1433.60;;;;;;5093243;28;20020;-79